createdAt,value
2022-08-29T00:01:13.558Z,1.33
2022-08-29T00:03:41.134Z,1.27
2022-08-29T00:06:11.224Z,1.10
2022-08-29T00:08:38.789Z,1.30
2022-08-29T00:11:06.348Z,1.50
2022-08-29T00:13:34.029Z,1.57
2022-08-29T00:16:01.671Z,1.47
2022-08-29T00:18:29.172Z,1.50
2022-08-29T00:20:56.718Z,1.43
2022-08-29T00:23:24.205Z,1.10
2022-08-29T00:25:51.691Z,1.53
2022-08-29T00:28:19.139Z,1.33
2022-08-29T00:30:46.669Z,1.37
2022-08-29T00:33:14.249Z,1.60
2022-08-29T00:35:43.081Z,1.37
2022-08-29T00:38:12.703Z,1.43
2022-08-29T00:40:51.294Z,1.20
2022-08-29T00:43:21.545Z,1.43
2022-08-29T00:45:58.228Z,1.37
2022-08-29T00:48:25.900Z,1.50
2022-08-29T00:50:56.189Z,1.60
2022-08-29T00:53:28.283Z,1.53
2022-08-29T00:55:56.441Z,1.70
2022-08-29T00:58:29.036Z,1.77
2022-08-29T01:00:56.556Z,1.63
2022-08-29T01:03:24.136Z,1.80
2022-08-29T01:05:51.890Z,1.50
2022-08-29T01:08:19.663Z,1.50
2022-08-29T01:10:47.198Z,1.60
2022-08-29T01:13:14.951Z,2.10
2022-08-29T01:15:43.696Z,1.47
2022-08-29T01:18:11.279Z,1.90
2022-08-29T01:20:41.660Z,2.43
2022-08-29T01:23:24.225Z,1.60
2022-08-29T01:25:52.682Z,1.67
2022-08-29T01:28:22.183Z,1.80
2022-08-29T01:31:00.292Z,1.80
2022-08-29T01:33:28.400Z,1.63
2022-08-29T01:35:55.973Z,2.07
2022-08-29T01:38:23.592Z,1.50
2022-08-29T01:40:51.079Z,1.37
2022-08-29T01:43:18.651Z,2.20
2022-08-29T01:45:46.213Z,1.80
2022-08-29T01:48:13.933Z,2.20
2022-08-29T01:50:41.503Z,2.00
2022-08-29T01:53:09.044Z,1.70
2022-08-29T01:55:37.773Z,2.17
2022-08-29T01:58:05.575Z,1.70
2022-08-29T02:00:33.309Z,1.70
2022-08-29T02:03:00.836Z,1.73
2022-08-29T02:05:29.300Z,1.77
2022-08-29T02:07:57.427Z,1.60
2022-08-29T02:10:25.630Z,1.80
2022-08-29T02:12:53.168Z,1.73
2022-08-29T02:15:21.382Z,1.83
2022-08-29T02:17:48.868Z,1.80
2022-08-29T02:20:16.732Z,2.07
2022-08-29T02:22:44.424Z,1.50
2022-08-29T02:25:12.143Z,1.50
2022-08-29T02:27:39.665Z,2.03
2022-08-29T02:30:07.365Z,1.53
2022-08-29T02:32:34.896Z,1.83
2022-08-29T02:35:02.372Z,1.87
2022-08-29T02:37:32.497Z,2.33
2022-08-29T02:40:00.026Z,1.90
2022-08-29T02:42:27.567Z,2.00
2022-08-29T02:44:55.036Z,1.93
2022-08-29T02:47:22.610Z,1.87
2022-08-29T02:49:50.075Z,1.70
2022-08-29T02:52:18.016Z,2.03
2022-08-29T02:54:45.485Z,1.80
2022-08-29T02:57:12.974Z,1.70
2022-08-29T02:59:40.487Z,2.20
2022-08-29T03:02:08.103Z,1.77
2022-08-29T03:04:35.669Z,1.57
2022-08-29T03:07:03.171Z,2.00
2022-08-29T03:09:30.637Z,2.20
2022-08-29T03:11:58.155Z,2.07
2022-08-29T03:14:26.272Z,1.60
2022-08-29T03:16:53.731Z,2.00
2022-08-29T03:19:21.252Z,2.13
2022-08-29T03:21:49.103Z,2.13
2022-08-29T03:24:16.607Z,2.00
2022-08-29T03:26:56.535Z,2.13
2022-08-29T03:29:24.706Z,2.00
2022-08-29T03:31:52.218Z,1.80
2022-08-29T03:34:20.113Z,1.83
2022-08-29T03:36:47.759Z,2.10
2022-08-29T03:39:15.264Z,2.00
2022-08-29T03:41:43.105Z,2.20
2022-08-29T03:44:10.628Z,1.73
2022-08-29T03:46:38.244Z,2.20
2022-08-29T03:49:09.383Z,2.43
2022-08-29T03:51:37.823Z,1.80
2022-08-29T03:54:05.602Z,2.00
2022-08-29T03:56:33.358Z,1.80
2022-08-29T03:59:01.101Z,2.23
2022-08-29T04:01:28.948Z,2.40
2022-08-29T04:03:57.235Z,2.10
2022-08-29T04:06:25.637Z,2.50
2022-08-29T04:08:53.235Z,2.47
2022-08-29T04:11:21.640Z,2.40
2022-08-29T04:13:49.316Z,3.53
2022-08-29T04:16:18.353Z,2.37
2022-08-29T04:18:46.134Z,2.33
2022-08-29T04:21:13.904Z,2.37
2022-08-29T04:23:41.784Z,2.53
2022-08-29T04:26:35.985Z,2.73
2022-08-29T04:29:03.995Z,2.80
2022-08-29T04:31:31.604Z,2.10
2022-08-29T04:33:59.156Z,2.40
2022-08-29T04:36:26.666Z,2.23
2022-08-29T04:38:54.316Z,2.23
2022-08-29T04:41:21.805Z,2.70
2022-08-29T04:43:49.285Z,2.10
2022-08-29T04:46:23.779Z,2.80
2022-08-29T04:48:52.723Z,2.97
2022-08-29T04:51:20.753Z,2.60
2022-08-29T04:53:48.261Z,3.10
2022-08-29T04:56:16.378Z,3.10
2022-08-29T04:58:44.259Z,2.90
2022-08-29T05:01:16.172Z,2.70
2022-08-29T05:03:43.787Z,2.90
2022-08-29T05:06:12.371Z,2.57
2022-08-29T05:08:40.947Z,3.20
2022-08-29T05:11:11.684Z,2.83
2022-08-29T05:13:39.216Z,2.90
2022-08-29T05:16:11.134Z,2.83
2022-08-29T05:18:38.888Z,2.67
2022-08-29T05:21:06.611Z,2.70
2022-08-29T05:23:34.418Z,3.50
2022-08-29T05:26:03.145Z,2.87
2022-08-29T05:28:32.530Z,2.97
2022-08-29T05:31:00.229Z,3.23
2022-08-29T05:33:27.811Z,2.93
2022-08-29T05:35:55.298Z,3.33
2022-08-29T05:38:22.763Z,2.90
2022-08-29T05:40:50.248Z,3.10
2022-08-29T05:43:17.736Z,2.83
2022-08-29T05:45:45.365Z,3.40
2022-08-29T05:48:12.988Z,3.27
2022-08-29T05:50:41.279Z,3.93
2022-08-29T05:53:09.474Z,3.67
2022-08-29T05:55:42.790Z,3.43
2022-08-29T05:58:10.578Z,5.60
2022-08-29T06:00:39.347Z,5.17
2022-08-29T06:03:08.687Z,4.20
2022-08-29T06:05:36.299Z,5.53
2022-08-29T06:08:03.930Z,5.70
2022-08-29T06:10:31.500Z,6.50
2022-08-29T06:12:58.999Z,7.47
2022-08-29T06:15:26.588Z,8.50
2022-08-29T06:17:54.122Z,8.67
2022-08-29T06:20:21.779Z,7.73
2022-08-29T06:22:49.278Z,7.23
2022-08-29T06:25:37.896Z,7.13
2022-08-29T06:28:04.421Z,7.00
2022-08-29T06:30:32.893Z,6.67
2022-08-29T06:33:00.746Z,5.47
2022-08-29T06:35:28.229Z,5.37
2022-08-29T06:37:55.692Z,6.50
2022-08-29T06:40:23.368Z,5.83
2022-08-29T06:42:51.002Z,5.90
2022-08-29T06:45:18.558Z,5.27
2022-08-29T06:47:46.955Z,5.57
2022-08-29T06:50:15.074Z,5.50
2022-08-29T06:52:42.538Z,5.47
2022-08-29T06:55:10.635Z,5.23
2022-08-29T06:57:38.722Z,6.83
2022-08-29T07:00:21.658Z,6.50
2022-08-29T07:02:52.513Z,5.90
2022-08-29T07:05:22.204Z,6.53
2022-08-29T07:07:50.425Z,5.33
2022-08-29T07:10:22.278Z,6.90
2022-08-29T07:12:50.886Z,6.63
2022-08-29T07:15:18.639Z,7.40
2022-08-29T07:17:46.116Z,5.90
2022-08-29T07:20:14.338Z,4.10
2022-08-29T07:22:41.899Z,5.10
2022-08-29T07:25:10.166Z,6.00
2022-08-29T07:27:37.730Z,4.80
2022-08-29T07:30:06.186Z,5.20
2022-08-29T07:32:33.681Z,4.30
2022-08-29T07:35:01.392Z,4.20
2022-08-29T07:37:28.925Z,4.33
2022-08-29T07:39:56.447Z,5.43
2022-08-29T07:42:23.964Z,4.87
2022-08-29T07:44:51.492Z,3.67
2022-08-29T07:47:19.024Z,4.37
2022-08-29T07:49:46.496Z,3.33
2022-08-29T07:52:14.004Z,3.93
2022-08-29T07:54:41.533Z,4.83
2022-08-29T07:57:09.002Z,4.13
2022-08-29T07:59:36.506Z,4.70
2022-08-29T08:02:04.784Z,3.43
2022-08-29T08:04:33.140Z,2.93
2022-08-29T08:07:02.815Z,2.70
2022-08-29T08:09:30.424Z,3.30
2022-08-29T08:11:57.964Z,2.50
2022-08-29T08:14:34.762Z,1.97
2022-08-29T08:17:02.667Z,2.27
2022-08-29T08:19:30.320Z,3.67
2022-08-29T08:21:57.791Z,3.40
2022-08-29T08:24:25.395Z,3.00
2022-08-29T08:26:52.960Z,2.93
2022-08-29T08:29:20.492Z,2.87
2022-08-29T08:31:49.775Z,3.27
2022-08-29T08:34:18.175Z,3.20
2022-08-29T08:36:46.106Z,3.07
2022-08-29T08:39:14.417Z,3.37
2022-08-29T08:42:08.042Z,3.17
2022-08-29T08:44:38.646Z,3.43
2022-08-29T08:47:07.865Z,3.33
2022-08-29T08:49:52.841Z,2.90
2022-08-29T08:52:27.824Z,2.90
2022-08-29T08:55:23.522Z,2.97
2022-08-29T08:57:55.959Z,3.10
2022-08-29T09:00:23.601Z,2.80
2022-08-29T09:02:58.351Z,3.90
2022-08-29T09:05:36.920Z,1.73
2022-08-29T09:08:10.235Z,2.43
2022-08-29T09:10:43.660Z,2.10
2022-08-29T09:13:11.166Z,2.60
2022-08-29T09:15:48.990Z,2.47
2022-08-29T09:18:36.372Z,2.20
2022-08-29T09:21:37.038Z,2.83
2022-08-29T09:23:59.558Z,2.47
2022-08-29T09:26:27.393Z,2.63
2022-08-29T09:28:55.220Z,2.30
2022-08-29T09:31:33.304Z,2.40
2022-08-29T09:34:02.341Z,2.63
2022-08-29T09:36:50.251Z,3.40
2022-08-29T09:39:17.866Z,2.70
2022-08-29T09:41:46.359Z,2.87
2022-08-29T09:44:16.068Z,2.20
2022-08-29T09:46:43.569Z,2.70
2022-08-29T09:49:12.986Z,2.40
2022-08-29T09:51:42.160Z,2.00
2022-08-29T09:54:15.590Z,4.03
2022-08-29T09:57:03.349Z,2.93
2022-08-29T09:59:35.637Z,2.40
2022-08-29T10:02:09.269Z,2.87
2022-08-29T10:04:38.070Z,2.80
2022-08-29T10:07:15.141Z,3.17
2022-08-29T10:09:53.404Z,3.10
2022-08-29T10:12:25.357Z,3.93
2022-08-29T10:14:55.195Z,2.37
2022-08-29T10:17:26.928Z,2.57
2022-08-29T10:19:54.435Z,3.40
2022-08-29T10:22:39.702Z,3.53
2022-08-29T10:25:07.245Z,3.53
2022-08-29T10:27:43.596Z,3.47
2022-08-29T10:30:13.475Z,2.97
2022-08-29T10:32:44.017Z,3.87
2022-08-29T10:35:37.831Z,3.57
2022-08-29T10:38:26.251Z,3.60
2022-08-29T10:41:06.358Z,3.03
2022-08-29T10:43:39.581Z,3.33
2022-08-29T10:46:12.810Z,2.93
2022-08-29T10:48:46.626Z,3.67
2022-08-29T10:51:22.941Z,2.80
2022-08-29T10:53:58.248Z,2.80
2022-08-29T10:56:33.554Z,3.40
2022-08-29T10:59:07.481Z,2.73
2022-08-29T11:01:38.209Z,3.43
2022-08-29T11:04:18.156Z,3.20
2022-08-29T11:07:04.478Z,2.30
2022-08-29T11:09:38.113Z,3.00
2022-08-29T11:12:17.303Z,2.93
2022-08-29T11:14:52.170Z,2.40
2022-08-29T11:17:21.135Z,3.37
2022-08-29T11:19:55.304Z,3.73
2022-08-29T11:22:28.410Z,3.10
2022-08-29T11:25:10.128Z,2.87
2022-08-29T11:27:37.602Z,3.63
2022-08-29T11:30:16.292Z,3.10
2022-08-29T11:32:52.954Z,3.10
2022-08-29T11:35:20.488Z,2.57
2022-08-29T11:37:47.985Z,3.17
2022-08-29T11:40:15.548Z,3.07
2022-08-29T11:42:53.576Z,3.30
2022-08-29T11:45:36.949Z,2.73
2022-08-29T11:48:08.012Z,4.53
2022-08-29T11:50:36.934Z,3.60
2022-08-29T11:53:23.282Z,2.90
2022-08-29T11:56:10.571Z,2.53
2022-08-29T11:58:38.181Z,3.63
2022-08-29T12:03:41.645Z,2.97
2022-08-29T12:06:28.757Z,3.00
2022-08-29T12:09:14.643Z,2.80
2022-08-29T12:12:00.957Z,2.43
2022-08-29T12:14:37.881Z,2.90
2022-08-29T12:17:07.450Z,3.10
2022-08-29T12:19:47.171Z,2.73
2022-08-29T12:22:33.752Z,2.60
2022-08-29T12:25:21.250Z,2.60
2022-08-29T12:28:01.043Z,2.53
2022-08-29T12:30:30.786Z,2.70
2022-08-29T12:32:58.284Z,2.70
2022-08-29T12:35:32.190Z,3.30
2022-08-29T12:38:05.707Z,2.87
2022-08-29T12:40:33.228Z,3.10
2022-08-29T12:43:19.218Z,2.57
2022-08-29T12:45:47.172Z,2.43
2022-08-29T12:48:20.780Z,3.03
2022-08-29T12:50:48.292Z,2.60
2022-08-29T12:53:18.597Z,2.40
2022-08-29T12:55:51.482Z,2.50
2022-08-29T12:58:34.577Z,2.57
2022-08-29T13:01:02.326Z,2.37
2022-08-29T13:03:29.875Z,2.30
2022-08-29T13:06:08.448Z,2.63
2022-08-29T13:08:36.761Z,2.30
2022-08-29T13:11:06.983Z,2.73
2022-08-29T13:13:34.640Z,3.27
2022-08-29T13:16:03.768Z,2.77
2022-08-29T13:18:31.830Z,2.37
2022-08-29T13:21:05.659Z,2.40
2022-08-29T13:23:35.305Z,2.50
2022-08-29T13:26:02.982Z,3.13
2022-08-29T13:28:36.421Z,2.43
2022-08-29T13:31:03.942Z,3.63
2022-08-29T13:33:35.248Z,2.90
2022-08-29T13:36:23.807Z,2.63
2022-08-29T13:39:10.235Z,2.50
2022-08-29T13:41:37.970Z,2.00
2022-08-29T13:44:05.674Z,2.83
2022-08-29T13:46:33.281Z,3.00
2022-08-29T13:49:02.188Z,2.43
2022-08-29T13:51:29.653Z,3.37
2022-08-29T13:53:57.323Z,2.63
2022-08-29T13:56:32.527Z,3.03
2022-08-29T13:59:01.423Z,2.53
2022-08-29T14:01:30.885Z,2.60
2022-08-29T14:07:04.299Z,2.63
2022-08-29T14:09:42.208Z,2.70
2022-08-29T14:12:10.039Z,3.70
2022-08-29T14:14:37.529Z,3.37
2022-08-29T14:17:05.469Z,3.03
2022-08-29T14:19:33.246Z,3.43
2022-08-29T14:22:02.277Z,2.90
2022-08-29T14:24:30.794Z,2.97
2022-08-29T14:27:01.495Z,3.63
2022-08-29T14:29:33.823Z,3.87
2022-08-29T14:32:02.971Z,2.87
2022-08-29T14:34:32.376Z,3.03
2022-08-29T14:37:03.796Z,3.20
2022-08-29T14:39:31.324Z,3.17
2022-08-29T14:41:58.866Z,2.93
2022-08-29T14:44:26.458Z,2.60
2022-08-29T14:46:53.958Z,3.53
2022-08-29T14:49:21.499Z,3.30
2022-08-29T14:51:49.646Z,2.97
2022-08-29T14:54:17.220Z,3.20
2022-08-29T14:56:48.598Z,2.60
2022-08-29T14:59:16.909Z,3.20
2022-08-29T15:01:51.303Z,2.60
2022-08-29T15:04:21.804Z,3.13
2022-08-29T15:07:07.602Z,2.63
2022-08-29T15:09:35.332Z,2.60
2022-08-29T15:12:03.160Z,2.10
2022-08-29T15:14:31.042Z,3.10
2022-08-29T15:16:58.686Z,2.97
2022-08-29T15:22:14.219Z,3.07
2022-08-29T15:24:41.713Z,3.27
2022-08-29T15:27:09.658Z,3.03
2022-08-29T15:29:37.689Z,2.57
2022-08-29T15:32:05.312Z,2.20
2022-08-29T15:34:33.346Z,2.43
2022-08-29T15:37:01.643Z,2.30
2022-08-29T15:39:29.357Z,2.40
2022-08-29T15:41:57.947Z,2.77
2022-08-29T15:44:32.317Z,1.87
2022-08-29T15:47:01.872Z,3.07
2022-08-29T15:49:29.579Z,2.23
2022-08-29T15:51:57.676Z,2.63
2022-08-29T15:54:25.827Z,2.63
2022-08-29T15:56:54.062Z,2.47
2022-08-29T15:59:35.787Z,2.60
2022-08-29T16:02:09.129Z,1.87
2022-08-29T16:04:37.324Z,2.43
2022-08-29T16:07:05.081Z,1.83
2022-08-29T16:09:32.576Z,2.30
2022-08-29T16:12:00.105Z,2.93
2022-08-29T16:17:15.151Z,1.60
2022-08-29T16:19:48.587Z,2.17
2022-08-29T16:22:16.174Z,2.60
2022-08-29T16:24:43.961Z,2.13
2022-08-29T16:27:11.592Z,2.63
2022-08-29T16:29:39.122Z,1.80
2022-08-29T16:32:06.715Z,2.23
2022-08-29T16:34:34.264Z,2.07
2022-08-29T16:37:02.139Z,2.13
2022-08-29T16:39:30.088Z,2.40
2022-08-29T16:41:57.766Z,2.70
2022-08-29T16:44:25.309Z,1.90
2022-08-29T16:46:52.917Z,2.40
2022-08-29T16:49:20.431Z,1.97
2022-08-29T16:51:48.039Z,2.33
2022-08-29T16:54:15.582Z,2.30
2022-08-29T16:56:43.307Z,2.03
2022-08-29T16:59:11.039Z,2.50
2022-08-29T17:01:48.909Z,2.07
2022-08-29T17:04:19.095Z,2.20
2022-08-29T17:06:46.871Z,2.00
2022-08-29T17:09:15.211Z,2.40
2022-08-29T17:11:42.896Z,2.47
2022-08-29T17:14:11.361Z,2.20
2022-08-29T17:16:39.569Z,2.50
2022-08-29T17:19:07.402Z,2.20
2022-08-29T17:21:35.511Z,2.47
2022-08-29T17:24:04.087Z,2.27
2022-08-29T17:26:31.650Z,1.57
2022-08-29T17:28:59.305Z,2.13
2022-08-29T17:31:26.873Z,2.30
2022-08-29T17:33:54.548Z,2.20
2022-08-29T17:36:22.120Z,2.13
2022-08-29T17:38:49.827Z,1.90
2022-08-29T17:41:21.184Z,2.30
2022-08-29T17:43:49.884Z,2.13
2022-08-29T17:46:18.968Z,2.23
2022-08-29T17:48:46.611Z,2.30
2022-08-29T17:51:14.166Z,2.30
2022-08-29T17:53:43.878Z,2.57
2022-08-29T17:56:37.668Z,2.07
2022-08-29T17:59:05.458Z,2.50
2022-08-29T18:01:34.262Z,2.67
2022-08-29T18:04:02.227Z,2.40
2022-08-29T18:06:32.268Z,2.23
2022-08-29T18:09:00.386Z,2.50
2022-08-29T18:11:30.691Z,2.37
2022-08-29T18:13:58.325Z,2.27
2022-08-29T18:16:25.982Z,2.13
2022-08-29T18:18:53.801Z,2.17
2022-08-29T18:21:21.329Z,2.83
2022-08-29T18:23:49.831Z,2.50
2022-08-29T18:26:17.387Z,2.33
2022-08-29T18:28:44.863Z,3.00
2022-08-29T18:31:18.308Z,2.40
2022-08-29T18:34:00.201Z,2.23
2022-08-29T18:36:33.146Z,1.93
2022-08-29T18:39:01.795Z,2.33
2022-08-29T18:41:29.287Z,2.40
2022-08-29T18:43:56.810Z,2.53
2022-08-29T18:46:24.350Z,2.83
2022-08-29T18:48:52.180Z,2.50
2022-08-29T18:51:19.912Z,3.27
2022-08-29T18:53:47.801Z,2.40
2022-08-29T18:56:15.365Z,2.60
2022-08-29T18:58:42.935Z,2.30
2022-08-29T19:01:27.803Z,2.60
2022-08-29T19:03:59.497Z,1.83
2022-08-29T19:06:27.557Z,2.07
2022-08-29T19:08:56.050Z,2.57
2022-08-29T19:11:23.662Z,2.40
2022-08-29T19:13:52.406Z,2.50
2022-08-29T19:16:21.103Z,2.50
2022-08-29T19:18:48.835Z,2.37
2022-08-29T19:21:17.952Z,2.10
2022-08-29T19:23:46.770Z,2.50
2022-08-29T19:26:28.871Z,2.50
2022-08-29T19:29:01.875Z,2.33
2022-08-29T19:31:29.592Z,2.50
2022-08-29T19:33:57.730Z,2.30
2022-08-29T19:36:25.988Z,2.57
2022-08-29T19:38:53.534Z,2.33
2022-08-29T19:41:21.060Z,2.30
2022-08-29T19:43:48.570Z,2.67
2022-08-29T19:46:18.327Z,2.50
2022-08-29T19:48:48.634Z,2.40
2022-08-29T19:51:21.054Z,2.57
2022-08-29T19:53:48.887Z,2.40
2022-08-29T19:56:18.104Z,2.63
2022-08-29T19:58:46.087Z,2.67
2022-08-29T20:01:13.855Z,2.90
2022-08-29T20:03:42.637Z,2.60
2022-08-29T20:06:10.195Z,2.80
2022-08-29T20:08:38.947Z,3.63
2022-08-29T20:11:07.312Z,3.30
2022-08-29T20:13:35.924Z,2.43
2022-08-29T20:16:03.936Z,2.60
2022-08-29T20:18:32.509Z,3.07
2022-08-29T20:21:00.122Z,2.77
2022-08-29T20:23:28.249Z,2.60
2022-08-29T20:25:55.766Z,2.70
2022-08-29T20:28:23.303Z,3.33
2022-08-29T20:30:50.901Z,2.43
2022-08-29T20:33:19.179Z,2.93
2022-08-29T20:35:46.692Z,2.53
2022-08-29T20:38:14.371Z,2.67
2022-08-29T20:40:43.714Z,2.63
2022-08-29T20:43:11.259Z,2.50
2022-08-29T20:45:39.234Z,2.67
2022-08-29T20:48:06.738Z,2.90
2022-08-29T20:50:34.374Z,2.80
2022-08-29T20:53:01.892Z,2.80
2022-08-29T20:55:29.449Z,3.03
2022-08-29T20:57:57.062Z,2.90
2022-08-29T21:00:24.592Z,3.00
2022-08-29T21:02:52.139Z,3.47
2022-08-29T21:05:19.647Z,3.40
2022-08-29T21:07:49.401Z,2.20
2022-08-29T21:10:16.970Z,3.30
2022-08-29T21:12:44.773Z,2.50
2022-08-29T21:15:12.236Z,2.93
2022-08-29T21:17:39.732Z,3.07
2022-08-29T21:20:07.816Z,3.03
2022-08-29T21:22:35.310Z,3.23
2022-08-29T21:25:02.809Z,2.60
2022-08-29T21:27:30.296Z,2.13
2022-08-29T21:29:57.812Z,3.17
2022-08-29T21:32:25.455Z,2.70
2022-08-29T21:34:53.066Z,2.73
2022-08-29T21:37:20.572Z,2.57
2022-08-29T21:39:48.141Z,2.80
2022-08-29T21:42:15.664Z,3.07
2022-08-29T21:44:43.156Z,3.10
2022-08-29T21:47:13.750Z,2.80
2022-08-29T21:49:44.727Z,2.97
2022-08-29T21:52:12.187Z,2.80
2022-08-29T21:54:39.789Z,3.50
2022-08-29T21:57:07.283Z,2.40
2022-08-29T21:59:34.753Z,2.60
2022-08-29T22:02:02.280Z,2.23
2022-08-29T22:04:29.979Z,2.13
2022-08-29T22:06:58.472Z,2.80
2022-08-29T22:09:27.145Z,2.73
2022-08-29T22:11:54.999Z,2.40
2022-08-29T22:14:22.512Z,2.20
2022-08-29T22:16:49.988Z,2.37
2022-08-29T22:19:17.948Z,2.37
2022-08-29T22:21:46.818Z,2.50
2022-08-29T22:24:15.567Z,3.13
2022-08-29T22:26:43.584Z,3.00
2022-08-29T22:29:12.166Z,2.33
2022-08-29T22:31:42.326Z,2.93
2022-08-29T22:34:11.081Z,2.50
2022-08-29T22:36:38.616Z,2.93
2022-08-29T22:39:06.544Z,2.43
2022-08-29T22:41:34.143Z,3.10
2022-08-29T22:44:59.706Z,2.27
2022-08-29T22:46:49.249Z,2.83
2022-08-29T22:49:16.822Z,2.50
2022-08-29T22:51:44.336Z,2.13
2022-08-29T22:54:12.952Z,1.90
2022-08-29T22:56:42.262Z,2.53
2022-08-29T22:59:10.077Z,2.60
2022-08-29T23:01:41.000Z,2.87
2022-08-29T23:04:08.725Z,2.57
2022-08-29T23:06:36.406Z,2.13
2022-08-29T23:09:04.645Z,2.50
2022-08-29T23:11:32.513Z,2.67
2022-08-29T23:14:00.148Z,2.27
2022-08-29T23:16:29.989Z,2.43
2022-08-29T23:18:57.503Z,2.60
2022-08-29T23:21:25.325Z,2.33
2022-08-29T23:23:52.871Z,2.70
2022-08-29T23:26:21.177Z,2.20
2022-08-29T23:28:48.853Z,2.23
2022-08-29T23:31:17.788Z,2.33
2022-08-29T23:33:45.325Z,2.40
2022-08-29T23:36:12.939Z,1.40
2022-08-29T23:38:40.809Z,2.67
2022-08-29T23:41:08.330Z,1.63
2022-08-29T23:43:37.004Z,2.20
2022-08-29T23:46:08.216Z,2.17
2022-08-29T23:48:35.811Z,2.23
2022-08-29T23:51:10.425Z,1.93
2022-08-29T23:53:38.664Z,3.07
2022-08-29T23:56:15.232Z,2.43
2022-08-29T23:58:43.176Z,2.10
